createdAt,value
2019-05-13T00:00:04.962Z,6.6719
2019-05-13T00:00:14.387Z,5.9785
2019-05-13T00:00:23.621Z,5.6643
2019-05-13T00:00:34.472Z,6.4263
2019-05-13T00:00:45.405Z,7.0613
2019-05-13T00:00:54.413Z,6.0419
2019-05-13T00:01:07.114Z,5.4473
2019-05-13T00:01:17.156Z,6.0748
2019-05-13T00:01:26.331Z,6.6785
2019-05-13T00:01:34.482Z,6.8625
2019-05-13T00:01:44.431Z,5.9426
2019-05-13T00:01:54.023Z,5.2594
2019-05-13T00:02:04.795Z,5.0550
2019-05-13T00:02:13.443Z,5.0615
2019-05-13T00:02:24.434Z,5.3148
2019-05-13T00:02:34.506Z,5.4884
2019-05-13T00:02:47.392Z,6.6763
2019-05-13T00:02:54.445Z,6.7185
2019-05-13T00:03:04.413Z,5.5881
2019-05-13T00:03:13.706Z,5.0197
2019-05-13T00:03:24.408Z,5.4096
2019-05-13T00:03:33.559Z,7.6705
2019-05-13T00:03:44.410Z,8.6322
2019-05-13T00:03:54.165Z,8.3530
2019-05-13T00:04:04.396Z,7.5630
2019-05-13T00:04:14.063Z,5.9491
2019-05-13T00:04:24.402Z,5.8825
2019-05-13T00:04:33.911Z,4.8844
2019-05-13T00:04:44.203Z,4.3401
2019-05-13T00:04:53.412Z,5.2057
2019-05-13T00:05:03.887Z,5.8147
2019-05-13T00:05:14.839Z,6.0706
2019-05-13T00:05:24.413Z,5.4798
2019-05-13T00:05:35.402Z,6.1098
2019-05-13T00:05:45.289Z,5.7230
2019-05-13T00:05:56.460Z,5.9883
2019-05-13T00:06:04.177Z,6.1053
2019-05-13T00:06:16.313Z,6.6403
2019-05-13T00:06:23.818Z,5.7216
2019-05-13T00:06:34.583Z,5.1516
2019-05-13T00:06:51.408Z,5.0463
2019-05-13T00:06:55.167Z,6.7878
2019-05-13T00:07:04.625Z,6.3532
2019-05-13T00:07:14.440Z,6.2933
2019-05-13T00:07:23.985Z,5.8260
2019-05-13T00:07:34.413Z,5.4991
2019-05-13T00:07:44.001Z,4.7986
2019-05-13T00:07:54.418Z,5.1670
2019-05-13T00:08:03.760Z,5.2507
2019-05-13T00:08:14.434Z,5.2497
2019-05-13T00:08:25.959Z,5.8621
2019-05-13T00:08:34.407Z,5.6306
2019-05-13T00:08:44.401Z,6.2521
2019-05-13T00:08:54.466Z,6.2367
2019-05-13T00:09:03.561Z,6.8033
2019-05-13T00:09:14.141Z,6.4750
2019-05-13T00:09:24.492Z,5.4750
2019-05-13T00:09:33.896Z,5.3435
2019-05-13T00:09:44.262Z,5.8902
2019-05-13T00:09:54.523Z,6.3787
2019-05-13T00:10:04.353Z,6.4968
2019-05-13T00:10:14.917Z,5.1526
2019-05-13T00:10:24.348Z,5.3642
2019-05-13T00:10:34.995Z,5.1767
2019-05-13T00:10:46.403Z,5.8204
2019-05-13T00:10:54.424Z,6.4962
2019-05-13T00:11:05.419Z,7.3067
2019-05-13T00:11:13.733Z,7.0485
2019-05-13T00:11:27.033Z,6.1644
2019-05-13T00:11:34.595Z,5.7742
2019-05-13T00:11:44.417Z,5.3237
2019-05-13T00:11:53.996Z,5.7797
2019-05-13T00:12:04.971Z,5.4029
2019-05-13T00:12:13.820Z,5.4852
2019-05-13T00:12:24.410Z,6.0709
2019-05-13T00:12:35.473Z,6.4928
2019-05-13T00:12:44.856Z,6.0448
2019-05-13T00:12:54.023Z,5.9100
2019-05-13T00:13:04.799Z,4.9465
2019-05-13T00:13:14.682Z,4.5321
2019-05-13T00:13:24.397Z,5.0557
2019-05-13T00:13:33.833Z,4.9256
2019-05-13T00:13:44.499Z,4.3001
2019-05-13T00:13:53.826Z,5.4166
2019-05-13T00:14:04.423Z,6.0845
2019-05-13T00:14:13.569Z,7.0571
2019-05-13T00:14:24.422Z,6.9552
2019-05-13T00:14:34.413Z,7.8622
2019-05-13T00:14:44.411Z,7.7016
2019-05-13T00:14:54.015Z,8.3445
2019-05-13T00:15:04.422Z,7.4926
2019-05-13T00:15:14.353Z,7.1090
2019-05-13T00:15:24.276Z,7.8443
2019-05-13T00:15:34.201Z,7.9427
2019-05-13T00:15:45.295Z,6.9616
2019-05-13T00:15:55.412Z,6.1614
2019-05-13T00:16:04.404Z,5.5357
2019-05-13T00:16:18.890Z,6.2735
2019-05-13T00:16:23.566Z,6.6241
2019-05-13T00:16:35.405Z,6.6097
2019-05-13T00:16:44.891Z,6.9666
2019-05-13T00:16:53.792Z,7.2131
2019-05-13T00:17:04.259Z,7.1981
2019-05-13T00:17:14.712Z,7.4160
2019-05-13T00:17:23.760Z,6.6471
2019-05-13T00:17:34.413Z,5.8400
2019-05-13T00:17:44.729Z,5.3350
2019-05-13T00:17:54.516Z,6.2879
2019-05-13T00:18:04.127Z,7.5772
2019-05-13T00:18:14.652Z,7.3927
2019-05-13T00:18:23.668Z,6.8450
2019-05-13T00:18:34.398Z,6.8944
2019-05-13T00:18:44.426Z,7.7567
2019-05-13T00:18:54.421Z,6.7307
2019-05-13T00:19:05.424Z,7.2643
2019-05-13T00:19:14.259Z,6.8778
2019-05-13T00:19:23.455Z,6.2380
2019-05-13T00:19:35.289Z,6.2394
2019-05-13T00:19:44.261Z,6.2374
2019-05-13T00:19:54.414Z,6.4325
2019-05-13T00:20:06.320Z,6.3670
2019-05-13T00:20:14.063Z,6.0841
2019-05-13T00:20:25.413Z,5.6906
2019-05-13T00:20:34.065Z,5.2934
2019-05-13T00:20:44.576Z,5.8920
2019-05-13T00:20:54.208Z,6.0476
2019-05-13T00:21:04.432Z,6.2432
2019-05-13T00:21:14.076Z,7.1707
2019-05-13T00:21:24.402Z,6.8225
2019-05-13T00:21:33.995Z,5.6763
2019-05-13T00:21:44.568Z,6.7241
2019-05-13T00:21:54.648Z,7.1866
2019-05-13T00:22:04.399Z,7.5169
2019-05-13T00:22:14.045Z,7.3542
2019-05-13T00:22:24.428Z,6.4741
2019-05-13T00:22:33.977Z,7.2004
2019-05-13T00:22:45.002Z,6.3208
2019-05-13T00:22:53.988Z,6.0119
2019-05-13T00:23:04.429Z,5.9334
2019-05-13T00:23:14.250Z,6.4028
2019-05-13T00:23:24.423Z,5.9677
2019-05-13T00:23:34.018Z,7.0663
2019-05-13T00:23:44.255Z,6.9485
2019-05-13T00:23:53.568Z,6.4807
2019-05-13T00:24:04.435Z,6.1222
2019-05-13T00:24:13.833Z,6.1264
2019-05-13T00:24:24.437Z,6.4637
2019-05-13T00:24:34.361Z,5.7775
2019-05-13T00:24:44.472Z,5.7714
2019-05-13T00:24:55.428Z,7.1535
2019-05-13T00:25:04.043Z,6.8415
2019-05-13T00:25:15.422Z,7.0809
2019-05-13T00:25:24.235Z,7.2123
2019-05-13T00:25:38.918Z,6.4801
2019-05-13T00:25:44.457Z,6.3063
2019-05-13T00:25:54.672Z,5.6740
2019-05-13T00:26:03.961Z,5.0858
2019-05-13T00:26:14.427Z,5.9098
2019-05-13T00:26:24.478Z,5.8258
2019-05-13T00:26:34.402Z,5.8740
2019-05-13T00:26:44.420Z,7.0784
2019-05-13T00:26:54.402Z,7.2576
2019-05-13T00:27:04.052Z,8.3039
2019-05-13T00:27:14.421Z,8.3618
2019-05-13T00:27:23.581Z,7.2437
2019-05-13T00:27:34.422Z,6.1677
2019-05-13T00:27:44.346Z,7.0318
2019-05-13T00:27:54.436Z,7.8585
2019-05-13T00:28:04.176Z,7.7416
2019-05-13T00:28:14.720Z,6.6275
2019-05-13T00:28:23.563Z,6.3082
2019-05-13T00:28:34.270Z,5.8184
2019-05-13T00:28:44.373Z,6.0868
2019-05-13T00:28:54.416Z,5.8100
2019-05-13T00:29:04.333Z,6.4039
2019-05-13T00:29:14.420Z,7.2828
2019-05-13T00:29:23.555Z,8.4331
2019-05-13T00:29:35.272Z,7.8935
2019-05-13T00:29:45.435Z,6.4921
2019-05-13T00:29:54.416Z,6.6227
2019-05-13T00:30:06.255Z,5.6421
2019-05-13T00:30:14.573Z,5.2754
2019-05-13T00:30:24.432Z,5.2692
2019-05-13T00:30:34.179Z,6.4276
2019-05-13T00:30:44.715Z,6.5912
2019-05-13T00:30:54.305Z,4.8464
2019-05-13T00:31:04.404Z,4.7375
2019-05-13T00:31:13.848Z,4.7561
2019-05-13T00:31:24.415Z,5.0774
2019-05-13T00:31:33.667Z,5.0443
2019-05-13T00:31:44.439Z,4.8244
2019-05-13T00:31:54.035Z,5.3634
2019-05-13T00:32:04.794Z,5.3291
2019-05-13T00:32:13.566Z,5.7081
2019-05-13T00:32:24.427Z,5.9253
2019-05-13T00:32:33.737Z,4.9259
2019-05-13T00:32:44.665Z,4.1609
2019-05-13T00:32:54.569Z,4.3471
2019-05-13T00:33:04.411Z,5.5174
2019-05-13T00:33:13.989Z,5.6506
2019-05-13T00:33:24.368Z,6.8756
2019-05-13T00:33:34.409Z,7.5574
2019-05-13T00:33:44.577Z,6.9875
2019-05-13T00:33:53.401Z,7.0261
2019-05-13T00:34:05.335Z,6.3957
2019-05-13T00:34:15.408Z,6.1244
2019-05-13T00:34:24.518Z,6.0341
2019-05-13T00:34:36.331Z,6.4983
2019-05-13T00:34:46.017Z,6.0333
2019-05-13T00:34:56.372Z,7.0954
2019-05-13T00:35:03.942Z,7.9038
2019-05-13T00:35:14.467Z,6.2863
2019-05-13T00:35:23.448Z,5.6449
2019-05-13T00:35:34.414Z,5.8101
2019-05-13T00:35:44.205Z,5.1038
2019-05-13T00:35:54.418Z,5.0994
2019-05-13T00:36:04.045Z,5.2271
2019-05-13T00:36:14.426Z,5.3950
2019-05-13T00:36:24.329Z,5.2734
2019-05-13T00:36:34.417Z,5.9483
2019-05-13T00:36:44.515Z,5.9342
2019-05-13T00:37:07.798Z,6.3504
2019-05-13T00:37:10.787Z,6.3077
2019-05-13T00:37:14.646Z,6.5365
2019-05-13T00:37:24.495Z,8.2055
2019-05-13T00:37:33.420Z,7.2141
2019-05-13T00:37:44.401Z,6.3003
2019-05-13T00:37:54.408Z,6.5515
2019-05-13T00:38:04.023Z,6.3809
2019-05-13T00:38:14.077Z,6.5049
2019-05-13T00:38:24.658Z,6.2753
2019-05-13T00:38:34.414Z,4.9133
2019-05-13T00:38:43.998Z,4.5220
2019-05-13T00:38:55.304Z,5.0370
2019-05-13T00:39:05.391Z,4.7473
2019-05-13T00:39:15.283Z,5.7315
2019-05-13T00:39:26.271Z,5.6848
2019-05-13T00:39:33.782Z,5.2694
2019-05-13T00:39:45.416Z,5.2734
2019-05-13T00:39:54.323Z,4.4249
2019-05-13T00:40:08.425Z,4.5873
2019-05-13T00:40:14.378Z,4.9358
2019-05-13T00:40:24.422Z,7.1630
2019-05-13T00:40:34.953Z,7.2999
2019-05-13T00:40:44.577Z,8.4362
2019-05-13T00:40:54.514Z,8.0781
2019-05-13T00:41:04.419Z,6.7564
2019-05-13T00:41:14.222Z,6.6171
2019-05-13T00:41:24.544Z,6.1824
2019-05-13T00:41:33.824Z,5.9840
2019-05-13T00:41:44.388Z,4.9428
2019-05-13T00:41:53.404Z,5.6030
2019-05-13T00:42:04.427Z,7.0973
2019-05-13T00:42:14.252Z,7.1338
2019-05-13T00:42:24.552Z,6.8698
2019-05-13T00:42:35.413Z,6.8621
2019-05-13T00:42:44.501Z,5.4762
2019-05-13T00:42:54.583Z,5.7541
2019-05-13T00:43:04.419Z,5.6358
2019-05-13T00:43:14.532Z,5.1786
2019-05-13T00:43:24.621Z,6.9713
2019-05-13T00:43:35.405Z,6.8191
2019-05-13T00:43:44.612Z,5.9103
2019-05-13T00:43:56.415Z,5.5165
2019-05-13T00:44:03.950Z,4.6782
2019-05-13T00:44:16.272Z,4.5641
2019-05-13T00:44:24.430Z,5.0192
2019-05-13T00:44:34.413Z,6.9718
2019-05-13T00:44:44.384Z,6.6947
2019-05-13T00:44:54.442Z,6.2086
2019-05-13T00:45:04.071Z,5.8509
2019-05-13T00:45:14.771Z,6.8020
2019-05-13T00:45:24.501Z,6.1852
2019-05-13T00:45:34.426Z,6.3082
2019-05-13T00:45:44.342Z,5.7816
2019-05-13T00:45:54.434Z,6.6235
2019-05-13T00:46:07.418Z,6.2059
2019-05-13T00:46:14.437Z,5.3655
2019-05-13T00:46:28.032Z,5.5033
2019-05-13T00:46:34.424Z,5.6581
2019-05-13T00:46:45.432Z,5.6313
2019-05-13T00:46:54.428Z,6.0787
2019-05-13T00:47:04.433Z,5.9422
2019-05-13T00:47:14.440Z,6.0297
2019-05-13T00:47:24.443Z,5.3161
2019-05-13T00:47:34.425Z,4.7930
2019-05-13T00:47:46.292Z,4.9409
2019-05-13T00:47:53.739Z,5.2210
2019-05-13T00:48:05.399Z,5.4372
2019-05-13T00:48:14.341Z,5.3449
2019-05-13T00:48:29.806Z,5.7202
2019-05-13T00:48:33.628Z,6.0819
2019-05-13T00:48:44.400Z,7.0474
2019-05-13T00:48:54.096Z,7.6016
2019-05-13T00:49:04.855Z,7.6459
2019-05-13T00:49:13.515Z,6.4627
2019-05-13T00:49:24.976Z,5.6158
2019-05-13T00:49:34.501Z,5.3423
2019-05-13T00:49:44.405Z,5.5703
2019-05-13T00:49:54.063Z,7.0456
2019-05-13T00:50:04.408Z,6.5394
2019-05-13T00:50:14.348Z,6.0246
2019-05-13T00:50:24.404Z,6.3363
2019-05-13T00:50:33.674Z,6.3336
2019-05-13T00:50:44.541Z,6.0923
2019-05-13T00:50:54.470Z,5.7238
2019-05-13T00:51:03.795Z,4.8337
2019-05-13T00:51:14.099Z,5.6472
2019-05-13T00:51:24.501Z,5.7854
2019-05-13T00:51:34.404Z,5.5805
2019-05-13T00:51:44.660Z,5.4116
2019-05-13T00:51:53.526Z,5.5931
2019-05-13T00:52:04.431Z,5.4925
2019-05-13T00:52:16.466Z,5.5479
2019-05-13T00:52:24.402Z,6.1493
2019-05-13T00:52:36.367Z,7.0297
2019-05-13T00:52:44.783Z,6.4151
2019-05-13T00:52:54.427Z,6.7447
2019-05-13T00:53:04.248Z,6.6720
2019-05-13T00:53:14.421Z,6.8859
2019-05-13T00:53:23.806Z,7.4470
2019-05-13T00:53:35.396Z,6.8618
2019-05-13T00:53:44.184Z,6.0487
2019-05-13T00:53:54.426Z,7.0966
2019-05-13T00:54:04.309Z,8.1967
2019-05-13T00:54:14.441Z,8.0762
2019-05-13T00:54:23.764Z,8.2280
2019-05-13T00:54:34.455Z,6.8075
2019-05-13T00:54:44.155Z,5.4999
2019-05-13T00:54:54.188Z,4.9702
2019-05-13T00:55:04.255Z,5.2828
2019-05-13T00:55:14.943Z,5.2752
2019-05-13T00:55:23.820Z,5.6563
2019-05-13T00:55:34.683Z,7.4113
2019-05-13T00:55:44.451Z,7.2170
2019-05-13T00:55:54.465Z,7.3657
2019-05-13T00:56:04.042Z,7.2101
2019-05-13T00:56:14.426Z,6.8747
2019-05-13T00:56:25.429Z,7.3629
2019-05-13T00:56:35.442Z,6.8485
2019-05-13T00:56:48.999Z,4.7112
2019-05-13T00:56:54.791Z,4.3028
2019-05-13T00:57:06.322Z,4.2553
2019-05-13T00:57:13.458Z,5.3640
2019-05-13T00:57:24.978Z,5.3337
2019-05-13T00:57:34.151Z,5.3739
2019-05-13T00:57:45.045Z,5.7114
2019-05-13T00:57:54.101Z,5.5255
2019-05-13T00:58:04.653Z,5.1130
2019-05-13T00:58:14.188Z,4.9848
2019-05-13T00:58:24.457Z,5.7349
2019-05-13T00:58:34.165Z,6.2413
2019-05-13T00:58:44.420Z,6.1245
2019-05-13T00:58:54.153Z,6.6418
2019-05-13T00:59:04.589Z,6.7888
2019-05-13T00:59:14.173Z,6.7950
2019-05-13T00:59:24.444Z,6.7697
2019-05-13T00:59:34.042Z,7.6455
2019-05-13T00:59:44.278Z,8.2633
2019-05-13T00:59:54.408Z,6.7994
2019-05-13T01:00:04.398Z,6.6288
2019-05-13T01:00:14.388Z,6.3729
2019-05-13T01:00:24.284Z,6.3382
2019-05-13T01:00:34.112Z,6.5522
2019-05-13T01:00:44.614Z,7.5567
2019-05-13T01:00:54.753Z,7.5014
2019-05-13T01:01:05.396Z,7.6096
2019-05-13T01:01:15.412Z,7.5174
2019-05-13T01:01:25.230Z,7.1761
2019-05-13T01:01:36.455Z,7.6894
2019-05-13T01:01:44.065Z,7.6948
2019-05-13T01:01:56.538Z,6.1468
2019-05-13T01:02:03.787Z,5.9906
2019-05-13T01:02:16.439Z,7.6818
2019-05-13T01:02:25.284Z,6.9963
2019-05-13T01:02:34.414Z,5.8120
2019-05-13T01:02:44.624Z,5.7055
2019-05-13T01:02:54.400Z,7.8015
2019-05-13T01:03:04.153Z,7.6186
2019-05-13T01:03:14.437Z,6.5215
2019-05-13T01:03:26.313Z,6.1273
2019-05-13T01:03:33.941Z,7.3497
2019-05-13T01:03:44.149Z,6.7535
2019-05-13T01:03:53.416Z,6.4223
2019-05-13T01:04:03.906Z,5.5858
2019-05-13T01:04:14.537Z,5.1558
2019-05-13T01:04:23.423Z,5.5914
2019-05-13T01:04:34.128Z,5.0979
2019-05-13T01:04:44.405Z,4.8974
2019-05-13T01:04:54.434Z,4.6696
2019-05-13T01:05:04.444Z,5.1608
2019-05-13T01:05:14.857Z,6.0806
2019-05-13T01:05:24.249Z,6.6790
2019-05-13T01:05:35.436Z,5.5512
2019-05-13T01:05:44.517Z,6.3086
2019-05-13T01:05:55.258Z,6.4684
2019-05-13T01:06:06.402Z,5.9118
2019-05-13T01:06:14.410Z,5.9351
2019-05-13T01:06:25.405Z,7.0125
2019-05-13T01:06:34.108Z,6.7999
2019-05-13T01:06:46.527Z,6.9260
2019-05-13T01:06:53.898Z,6.6899
2019-05-13T01:07:04.733Z,6.8150
2019-05-13T01:07:24.799Z,7.1779
2019-05-13T01:07:28.585Z,6.9680
2019-05-13T01:07:34.166Z,6.9942
2019-05-13T01:07:44.769Z,6.1230
2019-05-13T01:07:53.783Z,5.4850
2019-05-13T01:08:04.571Z,6.9570
2019-05-13T01:08:14.503Z,6.6206
2019-05-13T01:08:24.420Z,7.3008
2019-05-13T01:08:33.830Z,7.0610
2019-05-13T01:08:44.408Z,5.7141
2019-05-13T01:08:53.673Z,5.3295
2019-05-13T01:09:04.441Z,4.4768
2019-05-13T01:09:14.438Z,4.1656
2019-05-13T01:09:24.415Z,5.1097
2019-05-13T01:09:34.230Z,5.4035
2019-05-13T01:09:44.301Z,6.8996
2019-05-13T01:09:53.572Z,7.8694
2019-05-13T01:10:04.408Z,6.8103
2019-05-13T01:10:14.319Z,7.3604
2019-05-13T01:10:24.397Z,7.6645
2019-05-13T01:10:34.563Z,6.8470
2019-05-13T01:10:45.157Z,6.8220
2019-05-13T01:10:54.432Z,6.9106
2019-05-13T01:11:04.521Z,7.6794
2019-05-13T01:11:14.279Z,7.9347
2019-05-13T01:11:24.466Z,7.1098
2019-05-13T01:11:35.416Z,7.0354
2019-05-13T01:11:44.412Z,6.6545
2019-05-13T01:11:56.383Z,6.6200
2019-05-13T01:12:04.322Z,6.1908
2019-05-13T01:12:15.404Z,6.3400
2019-05-13T01:12:23.843Z,7.0375
2019-05-13T01:12:34.636Z,7.5813
2019-05-13T01:12:44.085Z,7.2612
2019-05-13T01:12:54.411Z,6.8262
2019-05-13T01:13:04.618Z,6.7614
2019-05-13T01:13:14.432Z,7.3432
2019-05-13T01:13:23.870Z,7.7102
2019-05-13T01:13:34.422Z,6.2589
2019-05-13T01:13:43.533Z,4.9166
2019-05-13T01:13:54.419Z,4.6863
2019-05-13T01:14:04.259Z,5.3406
2019-05-13T01:14:14.532Z,5.7134
2019-05-13T01:14:23.619Z,5.0146
2019-05-13T01:14:34.515Z,5.0353
2019-05-13T01:14:43.428Z,4.9771
2019-05-13T01:14:53.534Z,4.7961
2019-05-13T01:15:04.091Z,4.3935
2019-05-13T01:15:13.680Z,5.3739
2019-05-13T01:15:24.736Z,4.9263
2019-05-13T01:15:34.718Z,5.5513
2019-05-13T01:15:44.331Z,6.9396
2019-05-13T01:15:56.512Z,6.2595
2019-05-13T01:16:03.867Z,6.4771
2019-05-13T01:16:15.353Z,6.4922
2019-05-13T01:16:25.444Z,7.5264
2019-05-13T01:16:34.408Z,7.4696
2019-05-13T01:16:48.882Z,5.5516
2019-05-13T01:16:54.374Z,5.3713
2019-05-13T01:17:05.419Z,5.8692
2019-05-13T01:17:14.218Z,7.0671
2019-05-13T01:17:24.398Z,6.1087
2019-05-13T01:17:34.023Z,5.4465
2019-05-13T01:17:44.883Z,5.6212
2019-05-13T01:17:53.569Z,5.3829
2019-05-13T01:18:04.419Z,5.1678
2019-05-13T01:18:14.315Z,6.0933
2019-05-13T01:18:24.419Z,7.0681
2019-05-13T01:18:34.079Z,7.9853
2019-05-13T01:18:44.423Z,8.9167
2019-05-13T01:18:53.892Z,8.0833
2019-05-13T01:19:04.431Z,6.7364
2019-05-13T01:19:14.486Z,6.0647
2019-05-13T01:19:24.417Z,6.1734
2019-05-13T01:19:34.285Z,5.8391
2019-05-13T01:19:44.412Z,5.6941
2019-05-13T01:19:53.811Z,6.0914
2019-05-13T01:20:04.139Z,6.3791
2019-05-13T01:20:14.489Z,6.1604
2019-05-13T01:20:24.429Z,6.0773
2019-05-13T01:20:34.447Z,6.2058
2019-05-13T01:20:43.875Z,6.0551
2019-05-13T01:20:53.859Z,5.1584
2019-05-13T01:21:04.668Z,5.1233
2019-05-13T01:21:16.312Z,6.0949
2019-05-13T01:21:24.423Z,6.5328
2019-05-13T01:21:35.433Z,7.7380
2019-05-13T01:21:43.615Z,7.7768
2019-05-13T01:21:56.404Z,6.2048
2019-05-13T01:22:03.534Z,5.8565
2019-05-13T01:22:14.418Z,5.1653
2019-05-13T01:22:23.948Z,5.3439
2019-05-13T01:22:34.529Z,6.1468
2019-05-13T01:22:44.035Z,5.6918
2019-05-13T01:22:54.403Z,6.1387
2019-05-13T01:23:03.943Z,6.6564
2019-05-13T01:23:14.435Z,6.1176
2019-05-13T01:23:24.000Z,6.5797
2019-05-13T01:23:34.577Z,7.3750
2019-05-13T01:23:44.032Z,6.2092
2019-05-13T01:23:54.489Z,5.7054
2019-05-13T01:24:03.852Z,6.6447
2019-05-13T01:24:14.698Z,7.3697
2019-05-13T01:24:24.335Z,6.9342
2019-05-13T01:24:33.913Z,5.9049
2019-05-13T01:24:44.176Z,5.1520
2019-05-13T01:24:54.200Z,5.8098
2019-05-13T01:25:04.117Z,7.0995
2019-05-13T01:25:14.551Z,7.8087
2019-05-13T01:25:24.447Z,6.2852
2019-05-13T01:25:35.471Z,6.2624
2019-05-13T01:25:45.412Z,6.6803
2019-05-13T01:25:55.341Z,6.8242
2019-05-13T01:26:05.403Z,6.3003
2019-05-13T01:26:14.160Z,6.5945
2019-05-13T01:26:26.293Z,8.0953
2019-05-13T01:26:33.705Z,8.0246
2019-05-13T01:26:44.425Z,8.0967
2019-05-13T01:26:54.120Z,6.7654
2019-05-13T01:27:04.461Z,4.9376
2019-05-13T01:27:13.954Z,5.3285
2019-05-13T01:27:24.414Z,5.0466
2019-05-13T01:27:33.525Z,4.7686
2019-05-13T01:27:44.469Z,5.0429
2019-05-13T01:27:53.766Z,5.1373
2019-05-13T01:28:04.832Z,5.6588
2019-05-13T01:28:13.606Z,5.9526
2019-05-13T01:28:24.419Z,6.0706
2019-05-13T01:28:34.410Z,5.1755
2019-05-13T01:28:44.433Z,5.2756
2019-05-13T01:28:53.637Z,5.3031
2019-05-13T01:29:04.298Z,5.7705
2019-05-13T01:29:13.651Z,5.8602
2019-05-13T01:29:28.940Z,4.4036
2019-05-13T01:29:34.406Z,4.4466
2019-05-13T01:29:44.401Z,6.0404
2019-05-13T01:29:54.923Z,6.3257
2019-05-13T01:30:04.407Z,5.1942
2019-05-13T01:30:13.605Z,6.9982
2019-05-13T01:30:25.347Z,6.7806
2019-05-13T01:30:35.474Z,7.1832
2019-05-13T01:30:44.394Z,7.4810
2019-05-13T01:30:56.329Z,7.5438
2019-05-13T01:31:04.152Z,7.3447
2019-05-13T01:31:14.422Z,5.9743
2019-05-13T01:31:24.000Z,7.0337
2019-05-13T01:31:34.513Z,6.4341
2019-05-13T01:31:43.645Z,6.7647
2019-05-13T01:31:55.307Z,6.5829
2019-05-13T01:32:04.514Z,6.0827
2019-05-13T01:32:14.414Z,8.2061
2019-05-13T01:32:23.942Z,7.3047
2019-05-13T01:32:34.422Z,6.3379
2019-05-13T01:32:44.850Z,5.7994
2019-05-13T01:32:54.419Z,6.7179
2019-05-13T01:33:04.356Z,8.4821
2019-05-13T01:33:14.663Z,8.1929
2019-05-13T01:33:23.700Z,7.9235
2019-05-13T01:33:35.925Z,6.3530
2019-05-13T01:33:44.506Z,6.6468
2019-05-13T01:33:54.424Z,6.6428
2019-05-13T01:34:04.446Z,6.6833
2019-05-13T01:34:14.428Z,5.6437
2019-05-13T01:34:24.290Z,6.2400
2019-05-13T01:34:34.043Z,7.6716
2019-05-13T01:34:44.337Z,6.8709
2019-05-13T01:34:55.345Z,5.2224
2019-05-13T01:35:04.584Z,5.0401
2019-05-13T01:35:14.963Z,4.8562
2019-05-13T01:35:26.334Z,6.5151
2019-05-13T01:35:34.537Z,6.9269
2019-05-13T01:35:45.426Z,6.6371
2019-05-13T01:35:53.859Z,5.6169
2019-05-13T01:36:06.394Z,6.4454
2019-05-13T01:36:13.560Z,7.1472
2019-05-13T01:36:24.422Z,7.7878
2019-05-13T01:36:34.039Z,6.6592
2019-05-13T01:36:44.761Z,5.5826
2019-05-13T01:36:53.676Z,6.0094
2019-05-13T01:37:04.546Z,6.3298
2019-05-13T01:37:13.435Z,7.3398
2019-05-13T01:37:38.845Z,6.8728
2019-05-13T01:37:42.302Z,6.9989
2019-05-13T01:37:45.973Z,7.0599
2019-05-13T01:37:53.828Z,7.6003
2019-05-13T01:38:04.821Z,6.6114
2019-05-13T01:38:13.624Z,5.8235
2019-05-13T01:38:24.427Z,7.2068
2019-05-13T01:38:34.046Z,7.4011
2019-05-13T01:38:44.414Z,7.7608
2019-05-13T01:38:54.116Z,8.0718
2019-05-13T01:39:04.306Z,7.8537
2019-05-13T01:39:13.857Z,7.6699
2019-05-13T01:39:24.523Z,6.9876
2019-05-13T01:39:35.406Z,6.6219
2019-05-13T01:39:43.731Z,5.9735
2019-05-13T01:39:54.045Z,4.7369
2019-05-13T01:40:05.058Z,5.0192
2019-05-13T01:40:13.650Z,6.2965
2019-05-13T01:40:24.410Z,6.8206
2019-05-13T01:40:36.275Z,7.9125
2019-05-13T01:40:45.448Z,8.0869
2019-05-13T01:40:55.411Z,6.7657
2019-05-13T01:41:04.469Z,5.1111
2019-05-13T01:41:15.430Z,4.0205
2019-05-13T01:41:24.039Z,4.8250
2019-05-13T01:41:35.410Z,4.8461
2019-05-13T01:41:43.926Z,5.8627
2019-05-13T01:41:54.404Z,7.0631
2019-05-13T01:42:03.805Z,5.8558
2019-05-13T01:42:14.425Z,6.5642
2019-05-13T01:42:24.130Z,5.9218
2019-05-13T01:42:34.412Z,5.8055
2019-05-13T01:42:44.474Z,6.1786
2019-05-13T01:42:54.409Z,6.7236
2019-05-13T01:43:03.737Z,6.3471
2019-05-13T01:43:14.659Z,5.4776
2019-05-13T01:43:24.450Z,4.6673
2019-05-13T01:43:34.393Z,3.9689
2019-05-13T01:43:44.066Z,4.1222
2019-05-13T01:43:54.361Z,7.0380
2019-05-13T01:44:03.974Z,7.9391
2019-05-13T01:44:14.415Z,6.5325
2019-05-13T01:44:24.429Z,5.8753
2019-05-13T01:44:34.470Z,4.6335
2019-05-13T01:44:43.913Z,4.5063
2019-05-13T01:44:54.027Z,5.2337
2019-05-13T01:45:04.658Z,5.0435
2019-05-13T01:45:13.814Z,4.5181
2019-05-13T01:45:24.082Z,4.8446
2019-05-13T01:45:34.041Z,4.6793
2019-05-13T01:45:44.106Z,5.2860
2019-05-13T01:45:54.425Z,6.3063
2019-05-13T01:46:04.625Z,6.7904
2019-05-13T01:46:14.426Z,6.4533
2019-05-13T01:46:25.424Z,5.6474
2019-05-13T01:46:35.411Z,6.5104
2019-05-13T01:46:45.555Z,6.7638
2019-05-13T01:46:53.772Z,6.0431
2019-05-13T01:47:04.514Z,6.5748
2019-05-13T01:47:14.035Z,7.4639
2019-05-13T01:47:24.421Z,7.5274
2019-05-13T01:47:36.998Z,6.8549
2019-05-13T01:47:44.405Z,7.2183
2019-05-13T01:47:54.424Z,7.3945
2019-05-13T01:48:07.459Z,6.8621
2019-05-13T01:48:14.131Z,5.9070
2019-05-13T01:48:24.424Z,5.8726
2019-05-13T01:48:33.482Z,5.0257
2019-05-13T01:48:44.405Z,4.5730
2019-05-13T01:48:55.937Z,4.5564
2019-05-13T01:49:04.979Z,5.4202
2019-05-13T01:49:13.796Z,5.9772
2019-05-13T01:49:24.419Z,6.2596
2019-05-13T01:49:33.809Z,5.8560
2019-05-13T01:49:44.395Z,5.0110
2019-05-13T01:49:54.293Z,4.4943
2019-05-13T01:50:04.435Z,5.7390
2019-05-13T01:50:14.261Z,6.8827
2019-05-13T01:50:24.117Z,7.5953
2019-05-13T01:50:33.751Z,7.2655
2019-05-13T01:50:44.672Z,6.7153
2019-05-13T01:50:55.406Z,5.8575
2019-05-13T01:51:03.960Z,6.1600
2019-05-13T01:51:13.916Z,7.5002
2019-05-13T01:51:23.964Z,6.2950
2019-05-13T01:51:33.550Z,6.2191
2019-05-13T01:51:45.464Z,5.7170
2019-05-13T01:51:54.161Z,5.1353
2019-05-13T01:52:05.314Z,4.9498
2019-05-13T01:52:15.411Z,5.8908
2019-05-13T01:52:24.409Z,6.0279
2019-05-13T01:52:34.329Z,5.0728
2019-05-13T01:52:44.557Z,5.2274
2019-05-13T01:52:56.384Z,5.9537
2019-05-13T01:53:04.133Z,7.4744
2019-05-13T01:53:15.406Z,6.6244
2019-05-13T01:53:24.357Z,4.9155
2019-05-13T01:53:34.410Z,3.2225
2019-05-13T01:53:44.058Z,3.5132
2019-05-13T01:53:54.421Z,3.7357
2019-05-13T01:54:04.163Z,4.0219
2019-05-13T01:54:14.446Z,5.1085
2019-05-13T01:54:24.660Z,5.0828
2019-05-13T01:54:34.414Z,5.4648
2019-05-13T01:54:44.244Z,5.3453
2019-05-13T01:54:54.483Z,6.3049
2019-05-13T01:55:04.057Z,6.3689
2019-05-13T01:55:14.783Z,5.3508
2019-05-13T01:55:24.419Z,5.0538
2019-05-13T01:55:34.455Z,5.4649
2019-05-13T01:55:44.291Z,6.3473
2019-05-13T01:55:54.423Z,6.0149
2019-05-13T01:56:04.030Z,5.9873
2019-05-13T01:56:14.411Z,5.4821
2019-05-13T01:56:23.650Z,6.2427
2019-05-13T01:56:34.428Z,5.8428
2019-05-13T01:56:44.103Z,5.5002
2019-05-13T01:56:53.648Z,5.3588
2019-05-13T01:57:04.371Z,5.9202
2019-05-13T01:57:14.258Z,5.9289
2019-05-13T01:57:23.890Z,5.7839
2019-05-13T01:57:34.413Z,6.2855
2019-05-13T01:57:44.530Z,6.0077
2019-05-13T01:57:55.399Z,6.0027
2019-05-13T01:58:05.428Z,6.5970
2019-05-13T01:58:15.220Z,6.9410
2019-05-13T01:58:25.484Z,7.8877
2019-05-13T01:58:34.126Z,7.0295
2019-05-13T01:58:45.406Z,6.3527
2019-05-13T01:58:54.157Z,5.4884
2019-05-13T01:59:04.447Z,5.9753
2019-05-13T01:59:15.170Z,6.3868
2019-05-13T01:59:24.428Z,6.2491
2019-05-13T01:59:34.687Z,6.4449
2019-05-13T01:59:44.403Z,5.2522
2019-05-13T01:59:53.876Z,4.8639
2019-05-13T02:00:04.792Z,4.9775
2019-05-13T02:00:14.244Z,5.5204
2019-05-13T02:00:24.447Z,5.8524
2019-05-13T02:00:35.406Z,6.9482
2019-05-13T02:00:44.713Z,8.0570
2019-05-13T02:00:55.307Z,7.1883
2019-05-13T02:01:05.233Z,7.1693
2019-05-13T02:01:15.005Z,6.9490
2019-05-13T02:01:24.431Z,6.9543
2019-05-13T02:01:33.749Z,5.5406
2019-05-13T02:01:44.425Z,4.9965
2019-05-13T02:01:54.088Z,5.1437
2019-05-13T02:02:03.611Z,5.8724
2019-05-13T02:02:13.849Z,5.4107
2019-05-13T02:02:24.435Z,5.9195
2019-05-13T02:02:34.275Z,5.9608
2019-05-13T02:02:44.738Z,5.3909
2019-05-13T02:02:55.413Z,4.9583
2019-05-13T02:03:04.489Z,4.9613
2019-05-13T02:03:16.408Z,5.5134
2019-05-13T02:03:24.618Z,5.5634
2019-05-13T02:03:34.416Z,6.3634
2019-05-13T02:03:44.252Z,7.8682
2019-05-13T02:03:54.580Z,8.4409
2019-05-13T02:04:03.995Z,8.0911
2019-05-13T02:04:14.418Z,7.7117
2019-05-13T02:04:24.417Z,6.5227
2019-05-13T02:04:34.414Z,5.0911
2019-05-13T02:04:43.939Z,5.7046